Observations de surface / France / LFRC

Québec | Canada | États-Unis | France | UK | Europe | Ailleurs

Affichage: Infos & localisation pour LFRC | Aide pour décoder les METARs

LFRC CHERBOURG/MAUPERTUS -- FR
Raw surface observations for station LFRC
LFRC 211700Z AUTO VRB01KT 5000 BR NSC M01/M05 Q1024 NOSIG=
LFRC 211630Z AUTO 16003KT 5000 BR NSC M01/M05 Q1024 NOSIG=
LFRC 211600Z AUTO 16004KT 6000 NSC 00/M05 Q1024 NOSIG=
LFRC 211530Z AUTO 17003KT 7000 NSC 01/M05 Q1024 NOSIG=
LFRC 211500Z AUTO VRB03KT 8000 NSC 02/M05 Q1024 NOSIG=
LFRC 211430Z AUTO 16003KT 120V200 8000 NSC 02/M04 Q1024 NOSIG=
LFRC 211400Z AUTO 14004KT 110V170 8000 NSC 02/M04 Q1024 NOSIG=
LFRC 211330Z AUTO 15006KT 110V180 8000 NSC 01/M04 Q1024 NOSIG=
LFRC 211300Z AUTO 10005KT 8000 NSC 01/M04 Q1025 NOSIG=
LFRC 211230Z AUTO 15004KT 100V190 7000 NSC 01/M04 Q1025 NOSIG=
LFRC 211200Z AUTO 15006KT 7000 NSC 01/M04 Q1025 NOSIG=
LFRC 211130Z AUTO 14006KT 8000 NSC 01/M04 Q1025 NOSIG=
LFRC 211100Z AUTO 15005KT 7000 NSC 00/M04 Q1026 NOSIG=
LFRC 211030Z AUTO 15005KT 8000 NSC M00/M04 Q1026 NOSIG=
LFRC 211000Z AUTO 15004KT 6000 NSC M01/M04 Q1026 TEMPO 4000 BR=
LFRC 210930Z AUTO 16004KT 5000 BR NSC M02/M05 Q1026 NOSIG=
LFRC 210900Z AUTO 18004KT 5000 BR NSC M04/M06 Q1026 NOSIG=
LFRC 210830Z AUTO 17004KT 6000 NSC M05/M07 Q1026 NOSIG=
LFRC 210800Z AUTO 17004KT 6000 FEW017 M05/M07 Q1026 NOSIG=
LFRC 210730Z AUTO 15003KT 7000 BKN018 M04/M07 Q1026 NOSIG=
LFRC 210700Z AUTO 15004KT 7000 OVC019 M04/M06 Q1026 NOSIG=
LFRC 210630Z AUTO 17004KT 7000 BKN018 M04/M06 Q1026 NOSIG=
LFRC 210600Z AUTO VRB02KT 7000 FEW017 M04/M06 Q1026 NOSIG=
LFRC 210530Z AUTO 18003KT 7000 FEW017 M04/M07 Q1026 NOSIG=
LFRC 210500Z AUTO 18004KT 7000 NSC M04/M06 Q1026=
LFRC 210430Z AUTO 18004KT 7000 NSC M04/M07 Q1027=
LFRC 210400Z AUTO 19004KT 7000 NSC M04/M06 Q1026=
LFRC 210330Z AUTO 17004KT 7000 NSC M04/M06 Q1027=
LFRC 210300Z AUTO 15004KT 8000 NSC M04/M06 Q1027=
LFRC 210230Z AUTO 14005KT 8000 NSC M04/M06 Q1027=
LFRC 210200Z AUTO 14005KT 8000 NSC M03/M06 Q1027=
LFRC 210130Z AUTO 15003KT 8000 NSC M03/M06 Q1028=
LFRC 210100Z AUTO 15003KT 9000 NSC M03/M06 Q1028=
LFRC 210030Z AUTO 13005KT 8000 NSC M03/M06 Q1028=
LFRC 210000Z AUTO 14005KT 8000 NSC M03/M06 Q1028=
LFRC 202330Z AUTO 14006KT 9000 NSC M03/M06 Q1028=
LFRC 202300Z AUTO 13006KT 9000 NSC M03/M06 Q1028=
LFRC 202230Z AUTO 13006KT 9000 NSC M03/M05 Q1028=
LFRC 202200Z AUTO 13008KT 9000 NSC M02/M05 Q1028=
LFRC 202130Z AUTO 14006KT 9000 NSC M02/M05 Q1028=
LFRC 202100Z AUTO 14007KT 9000 NSC M02/M05 Q1028=
LFRC 202030Z AUTO 13007KT 9000 NSC M02/M05 Q1028=
LFRC 202000Z AUTO 14006KT CAVOK M01/M04 Q1028=
LFRC 201930Z AUTO 12006KT CAVOK M01/M04 Q1028=
LFRC 201900Z AUTO 10006KT CAVOK M01/M04 Q1028=
LFRC 201830Z AUTO 09006KT CAVOK M01/M04 Q1028 NOSIG=
LFRC 201800Z AUTO 11008KT CAVOK M00/M04 Q1028 NOSIG=
LFRC 201730Z AUTO 10007KT CAVOK M01/M04 Q1028 NOSIG=
LFRC 201700Z AUTO 09008KT CAVOK M00/M03 Q1028 NOSIG=